KSYF

Cheyenne County Municipal Airport

St Francis, Kansas, USA
METAR KSYF 141215Z AUTO 24009KT 10SM CLR M09/M12 A3027 RMK AO2 T10921122
Observed Flight Rules
Dec-14 @ 12:15 UTC (19 minutes ago) Visual Flight Rules
Wind Visibility Clouds
240° at 9 knots 10 miles
  • Clear skies
Temperatures Readings
Current -9°C / 16°F
Dewpoint -12°C / 10°F
Humidity 79%
Altimeter 30.27" Hg
Pressure 1025 hPa
Elevation 1025
METAR KSYF 141215Z AUTO 24009KT 10SM CLR M09/M12 A3027 RMK AO2 T10921122
Observed Flight Rules
Dec-14 @ 12:15 UTC
(19 minutes ago)
VFR
Wind Visibility
240° at 9 knots 10 miles
Clouds
  • Clear skies
Temperature Dewpoint
-9°C / 16°F -12°C / 10°F
Humidity Altimeter Pressure
79% 30.27" Hg 1025 hPa